Time;durP1;ratioP1;P1;durP2;ratioP2;P2;SDS_P1;SDS_P2;PMS_P1;PMS_P2;Temp;Humidity;BMP_temperature;BMP_pressure;BME280_temperature;BME280_humidity;BME280_pressure;Samples;Min_cycle;Max_cycle;Signal;HPM_P1;HPM_P2
2023/05/09 00:03:53;;;;;;;35.47;21.05;;;;;;;13.52;100.00;101792.03;10395800;28;20048;-67
2023/05/09 00:08:54;;;;;;;31.85;20.80;;;;;;;13.39;100.00;101786.00;10411959;28;20041;-68
2023/05/09 00:13:55;;;;;;;30.00;20.52;;;;;;;13.31;100.00;101778.94;10411504;28;20501;-68
2023/05/09 00:18:56;;;;;;;30.15;21.20;;;;;;;13.22;100.00;101772.13;10411082;28;20041;-68
2023/05/09 00:23:57;;;;;;;32.50;20.08;;;;;;;13.20;100.00;101777.91;10412697;28;20034;-68
2023/05/09 00:28:58;;;;;;;33.22;22.30;;;;;;;13.17;100.00;101769.25;10373371;28;20041;-68
2023/05/09 00:33:58;;;;;;;31.05;20.90;;;;;;;13.13;100.00;101755.13;10337844;28;20041;-68
2023/05/09 00:38:59;;;;;;;32.35;21.20;;;;;;;12.69;100.00;101689.41;10353928;28;20486;-68
2023/05/09 00:43:59;;;;;;;31.63;20.20;;;;;;;12.93;100.00;101739.00;10354046;28;20056;-68
2023/05/09 00:49:00;;;;;;;34.28;19.98;;;;;;;12.85;100.00;101737.47;10397492;28;20042;-68
2023/05/09 00:54:00;;;;;;;28.70;19.52;;;;;;;12.76;100.00;101729.88;10393453;28;20057;-68
2023/05/09 00:59:01;;;;;;;33.42;20.30;;;;;;;12.68;100.00;101726.41;10411868;28;20045;-69
2023/05/09 01:04:01;;;;;;;32.53;21.38;;;;;;;12.65;100.00;101726.91;10379080;28;20038;-67
2023/05/09 01:09:03;;;;;;;30.65;20.95;;;;;;;12.60;100.00;101728.72;10394304;28;20029;-68
2023/05/09 01:14:28;;;;;;;33.63;21.75;;;;;;;12.54;100.00;101713.97;10377140;28;20507;-68
2023/05/09 01:19:29;;;;;;;34.78;21.02;;;;;;;12.50;100.00;101701.75;10393514;28;20057;-68
2023/05/09 01:25:01;;;;;;;31.88;20.42;;;;;;;12.46;100.00;101697.78;10415019;28;20047;-67
2023/05/09 01:30:02;;;;;;;29.17;20.15;;;;;;;12.42;100.00;101688.31;10401375;28;20144;-67
2023/05/09 01:35:03;;;;;;;32.42;19.40;;;;;;;12.44;100.00;101691.69;10401367;28;20113;-68
2023/05/09 01:40:12;;;;;;;32.88;20.83;;;;;;;12.45;100.00;101677.63;10385365;28;20168;-68
2023/05/09 01:45:13;;;;;;;31.33;21.45;;;;;;;12.31;100.00;101645.88;10400800;28;20128;-68
2023/05/09 01:50:13;;;;;;;32.42;21.55;;;;;;;12.50;100.00;101669.44;10366112;28;20068;-68
2023/05/09 01:55:14;;;;;;;33.08;20.73;;;;;;;12.54;100.00;101668.94;10399700;28;20034;-68
2023/05/09 02:00:15;;;;;;;32.00;21.10;;;;;;;12.54;100.00;101661.50;10401486;28;20029;-68
2023/05/09 02:05:15;;;;;;;31.55;20.02;;;;;;;12.57;100.00;101668.44;10399943;28;20030;-68
2023/05/09 02:10:16;;;;;;;35.40;20.85;;;;;;;12.43;100.00;101632.03;10399869;28;20398;-68
2023/05/09 02:15:16;;;;;;;33.70;20.80;;;;;;;12.64;100.00;101669.13;10367109;28;20466;-69
2023/05/09 02:20:17;;;;;;;29.00;20.13;;;;;;;12.66;100.00;101667.78;10415500;28;20640;-68
2023/05/09 02:25:17;;;;;;;35.95;21.77;;;;;;;12.72;100.00;101663.19;10352570;28;20065;-68
2023/05/09 02:30:22;;;;;;;31.27;20.73;;;;;;;12.77;100.00;101663.28;10376084;28;20038;-67
2023/05/09 02:35:23;;;;;;;33.08;21.05;;;;;;;12.75;100.00;101659.09;10341795;28;20034;-68
2023/05/09 02:40:23;;;;;;;33.78;21.15;;;;;;;12.76;100.00;101652.50;10375726;28;20036;-69
2023/05/09 02:45:24;;;;;;;36.08;21.73;;;;;;;12.76;100.00;101645.03;10363550;28;20049;-69
2023/05/09 02:50:25;;;;;;;36.55;20.92;;;;;;;12.81;100.00;101636.81;10396231;28;20033;-68
2023/05/09 02:55:26;;;;;;;33.33;20.02;;;;;;;12.81;100.00;101624.94;10415692;28;20052;-68
2023/05/09 03:00:26;;;;;;;30.90;20.42;;;;;;;12.79;100.00;101632.63;10416543;28;20052;-68
2023/05/09 03:05:27;;;;;;;30.65;20.27;;;;;;;12.78;100.00;101625.44;10381212;28;20042;-68
2023/05/09 03:10:27;;;;;;;33.33;22.38;;;;;;;12.76;100.00;101613.81;10396610;28;20330;-68
2023/05/09 03:15:28;;;;;;;32.20;21.33;;;;;;;12.68;100.00;101602.06;10364606;28;20253;-68
2023/05/09 03:20:28;;;;;;;36.25;21.23;;;;;;;12.75;100.00;101610.19;10397093;28;20033;-68
2023/05/09 03:25:29;;;;;;;37.72;22.83;;;;;;;12.78;100.00;101617.16;10389855;28;20207;-68
2023/05/09 03:30:29;;;;;;;36.28;21.95;;;;;;;12.79;100.00;101605.00;10396781;28;20063;-68
2023/05/09 03:35:30;;;;;;;35.00;22.52;;;;;;;12.76;100.00;101605.53;10412413;28;20037;-68
2023/05/09 03:40:31;;;;;;;36.78;21.85;;;;;;;12.75;100.00;101598.31;10413269;28;20040;-68
2023/05/09 03:45:31;;;;;;;37.70;22.25;;;;;;;12.73;100.00;101606.84;10378502;28;20033;-69
2023/05/09 03:50:32;;;;;;;39.00;24.60;;;;;;;12.77;100.00;101598.91;10395363;28;20061;-68
2023/05/09 03:55:32;;;;;;;40.60;25.40;;;;;;;12.78;100.00;101587.59;10379305;28;20056;-67
2023/05/09 04:00:33;;;;;;;42.28;24.73;;;;;;;12.77;100.00;101590.59;10413203;28;20026;-68
2023/05/09 04:05:34;;;;;;;39.03;24.63;;;;;;;12.72;100.00;101589.44;10395435;28;20064;-68
2023/05/09 04:10:34;;;;;;;41.38;24.98;;;;;;;12.68;100.00;101588.25;10395162;28;20390;-68
2023/05/09 04:15:35;;;;;;;45.42;27.02;;;;;;;12.70;100.00;101574.22;10378633;28;20266;-69
2023/05/09 04:20:35;;;;;;;55.05;26.52;;;;;;;12.73;100.00;101579.22;10369271;28;20064;-68
2023/05/09 04:25:36;;;;;;;52.15;26.70;;;;;;;12.76;100.00;101572.38;10391048;28;20041;-68
2023/05/09 04:30:36;;;;;;;50.40;28.17;;;;;;;12.76;100.00;101567.66;10411825;28;20048;-68
2023/05/09 04:35:37;;;;;;;45.47;26.23;;;;;;;12.87;100.00;101575.03;10394402;28;20060;-68
2023/05/09 04:40:37;;;;;;;46.15;26.05;;;;;;;12.81;100.00;101556.69;10394290;28;20045;-67
2023/05/09 04:45:38;;;;;;;43.13;27.17;;;;;;;12.92;100.00;101557.69;10394094;28;20026;-68
2023/05/09 04:50:39;;;;;;;44.67;27.38;;;;;;;12.99;100.00;101561.13;10409495;28;20033;-68
2023/05/09 04:55:40;;;;;;;44.72;26.77;;;;;;;12.91;100.00;101536.66;10394758;28;20448;-68
2023/05/09 05:00:40;;;;;;;45.50;27.52;;;;;;;13.11;100.00;101547.19;10418829;28;20064;-68
2023/05/09 05:05:41;;;;;;;44.63;26.85;;;;;;;13.16;100.00;101540.88;10419532;28;20037;-68
2023/05/09 05:10:41;;;;;;;48.13;28.45;;;;;;;13.23;100.00;101538.75;10418727;28;20037;-68
2023/05/09 05:15:42;;;;;;;50.15;29.83;;;;;;;13.31;100.00;101538.34;10419263;28;20037;-69
2023/05/09 05:20:42;;;;;;;44.53;28.05;;;;;;;13.42;100.00;101542.94;10419644;28;20391;-69
2023/05/09 05:25:43;;;;;;;49.97;30.52;;;;;;;13.55;100.00;101546.41;10417807;28;20091;-68
2023/05/09 05:30:43;;;;;;;43.60;28.42;;;;;;;13.66;100.00;101531.59;10419214;28;20115;-65
2023/05/09 05:35:44;;;;;;;41.08;27.58;;;;;;;13.79;100.00;101530.34;10419474;28;20089;-68
2023/05/09 05:40:44;;;;;;;41.47;26.85;;;;;;;13.87;100.00;101525.19;10418026;28;20042;-69
2023/05/09 05:45:45;;;;;;;40.80;27.13;;;;;;;14.03;100.00;101511.50;10417075;28;20038;-68
2023/05/09 05:50:45;;;;;;;39.03;25.92;;;;;;;14.13;100.00;101508.84;10416887;28;20037;-68
2023/05/09 05:55:46;;;;;;;37.70;25.52;;;;;;;14.29;100.00;101502.34;10400368;28;20068;-68
2023/05/09 06:00:46;;;;;;;32.63;24.40;;;;;;;14.25;100.00;101487.34;10400156;28;20034;-69
2023/05/09 06:05:47;;;;;;;29.40;23.27;;;;;;;14.40;100.00;101486.63;10382645;28;20064;-68
2023/05/09 06:10:47;;;;;;;33.65;23.95;;;;;;;14.47;100.00;101480.84;10415350;28;20038;-68
2023/05/09 06:15:48;;;;;;;31.05;22.48;;;;;;;14.51;100.00;101476.44;10398659;28;20068;-68
2023/05/09 06:20:48;;;;;;;27.83;22.42;;;;;;;14.56;100.00;101468.22;10415703;28;20038;-68
2023/05/09 06:25:49;;;;;;;31.17;23.15;;;;;;;14.62;100.00;101461.63;10361106;28;20042;-68
2023/05/09 06:30:49;;;;;;;30.52;22.67;;;;;;;14.71;100.00;101451.69;10329246;28;20078;-69
2023/05/09 06:35:50;;;;;;;30.48;22.08;;;;;;;14.83;100.00;101450.66;10374269;28;20046;-69
2023/05/09 06:40:50;;;;;;;25.65;20.90;;;;;;;14.86;100.00;101426.00;10413254;28;20057;-68
2023/05/09 06:45:51;;;;;;;25.70;20.58;;;;;;;15.06;100.00;101414.16;10415589;28;20071;-68
2023/05/09 06:50:51;;;;;;;30.65;21.02;;;;;;;15.09;100.00;101410.84;10413121;28;20728;-68
2023/05/09 06:55:52;;;;;;;31.85;20.45;;;;;;;15.09;100.00;101413.63;10415283;28;20049;-68
2023/05/09 07:00:52;;;;;;;28.88;22.02;;;;;;;15.21;100.00;101404.22;10415578;28;20037;-69
2023/05/09 07:05:55;;;;;;;23.80;19.17;;;;;;;15.30;100.00;101399.81;10396630;28;20051;-69
2023/05/09 07:10:56;;;;;;;29.17;19.88;;;;;;;15.60;100.00;101392.66;10414072;28;20064;-69
2023/05/09 07:15:56;;;;;;;25.75;19.50;;;;;;;15.85;100.00;101389.09;10397036;28;20034;-69
2023/05/09 07:20:57;;;;;;;22.25;18.52;;;;;;;16.12;100.00;101367.44;10414649;28;20037;-69
2023/05/09 07:25:57;;;;;;;21.98;18.67;;;;;;;16.19;100.00;101353.25;10412621;28;20433;-69
2023/05/09 07:30:58;;;;;;;27.25;19.33;;;;;;;16.34;100.00;101353.22;10395785;28;20343;-69
2023/05/09 07:35:58;;;;;;;25.48;18.77;;;;;;;16.38;100.00;101358.22;10395817;28;20042;-70
2023/05/09 07:40:59;;;;;;;26.33;19.65;;;;;;;16.14;100.00;101364.34;10406246;28;20037;-69
2023/05/09 07:45:59;;;;;;;28.52;21.27;;;;;;;15.93;100.00;101347.72;10394521;28;20041;-69
2023/05/09 07:51:00;;;;;;;29.35;21.67;;;;;;;15.75;100.00;101353.84;10412215;28;20033;-68
2023/05/09 07:56:00;;;;;;;31.52;21.00;;;;;;;15.64;100.00;101343.81;10412980;28;20037;-69
2023/05/09 08:01:01;;;;;;;35.00;24.30;;;;;;;15.53;100.00;101343.81;10411123;28;20045;-69
2023/05/09 08:06:01;;;;;;;34.15;22.85;;;;;;;15.45;100.00;101336.03;10411872;28;20033;-69
2023/05/09 08:11:03;;;;;;;32.78;23.52;;;;;;;15.47;100.00;101322.72;10393739;28;20042;-69
2023/05/09 08:16:04;;;;;;;32.63;23.75;;;;;;;15.45;100.00;101319.38;10392444;28;20072;-69
2023/05/09 08:21:05;;;;;;;36.92;25.85;;;;;;;15.51;100.00;101309.94;10395288;28;20053;-69
2023/05/09 08:26:06;;;;;;;43.45;27.17;;;;;;;15.55;100.00;101318.56;10392271;28;20076;-70
2023/05/09 08:31:06;;;;;;;43.92;28.27;;;;;;;15.62;100.00;101312.72;10411142;28;20690;-69
2023/05/09 08:36:07;;;;;;;50.13;29.75;;;;;;;15.59;100.00;101316.06;10410839;28;20409;-69
2023/05/09 08:41:07;;;;;;;56.53;32.88;;;;;;;15.62;100.00;101318.28;10392812;28;20049;-69
2023/05/09 08:46:08;;;;;;;58.00;34.20;;;;;;;15.70;100.00;101306.63;10411299;28;20080;-70
2023/05/09 08:51:10;;;;;;;60.72;34.88;;;;;;;15.94;100.00;101299.41;10377160;28;20076;-69
2023/05/09 08:56:10;;;;;;;57.33;33.00;;;;;;;16.17;100.00;101297.16;10394311;28;20038;-70
2023/05/09 09:01:12;;;;;;;51.25;29.40;;;;;;;16.50;100.00;101289.25;10412248;28;20041;-69
2023/05/09 09:06:12;;;;;;;50.72;29.88;;;;;;;16.88;100.00;101284.09;10397987;28;20041;-70
2023/05/09 09:11:13;;;;;;;47.05;30.13;;;;;;;17.41;100.00;101275.13;10392991;28;20088;-70
2023/05/09 09:16:21;;;;;;;50.67;31.70;;;;;;;17.80;100.00;101252.78;10361451;28;20041;-70
2023/05/09 09:21:22;;;;;;;48.33;31.08;;;;;;;18.07;100.00;101246.66;10377878;28;20038;-70
2023/05/09 09:26:23;;;;;;;44.22;30.00;;;;;;;18.33;100.00;101235.19;10387694;28;20045;-70
2023/05/09 09:31:24;;;;;;;40.42;27.27;;;;;;;17.82;100.00;101114.06;10377047;28;20049;-70
2023/05/09 09:36:26;;;;;;;41.65;27.30;;;;;;;18.87;100.00;101227.53;10393480;28;20034;-70
2023/05/09 09:41:37;;;;;;;37.97;25.70;;;;;;;18.89;100.00;101219.69;10391441;28;20053;-71
2023/05/09 09:46:41;;;;;;;44.42;28.70;;;;;;;18.79;100.00;101214.25;10401788;28;20033;-70
2023/05/09 09:51:41;;;;;;;49.15;32.03;;;;;;;18.52;100.00;101204.56;10399254;28;20037;-70
2023/05/09 09:56:49;;;;;;;47.10;30.40;;;;;;;18.27;100.00;101214.94;10383525;28;20041;-70
2023/05/09 10:02:03;;;;;;;46.35;29.80;;;;;;;17.96;100.00;101214.44;10399974;28;20038;-70
2023/05/09 10:07:05;;;;;;;50.58;31.75;;;;;;;17.71;100.00;101196.03;10416288;28;20045;-70
2023/05/09 10:12:06;;;;;;;51.92;30.00;;;;;;;17.54;100.00;101208.47;10398842;28;20104;-70
2023/05/09 10:17:07;;;;;;;59.20;34.05;;;;;;;17.31;100.00;101212.84;10417265;28;20057;-70
2023/05/09 10:22:08;;;;;;;60.40;33.50;;;;;;;17.14;100.00;101209.66;10381518;28;20107;-70
2023/05/09 10:27:10;;;;;;;63.55;35.50;;;;;;;17.05;100.00;101211.38;10358242;28;20083;-71
2023/05/09 10:32:15;;;;;;;53.38;32.22;;;;;;;17.11;100.00;101185.19;10357858;28;20052;-71
2023/05/09 10:37:15;;;;;;;52.38;32.33;;;;;;;17.17;100.00;101174.84;10358451;28;20049;-71
2023/05/09 10:42:16;;;;;;;64.80;35.17;;;;;;;17.46;100.00;101172.91;10342089;28;20122;-70
2023/05/09 10:47:16;;;;;;;55.50;32.25;;;;;;;17.67;100.00;101176.34;10342133;28;20064;-71
2023/05/09 10:52:17;;;;;;;58.08;31.23;;;;;;;17.79;100.00;101170.34;10372051;28;20081;-72
2023/05/09 10:57:18;;;;;;;59.65;34.67;;;;;;;17.76;100.00;101162.59;10380059;28;20040;-71
2023/05/09 11:02:19;;;;;;;67.32;36.45;;;;;;;17.85;100.00;101160.81;10397095;28;20056;-71
2023/05/09 11:07:24;;;;;;;51.75;31.60;;;;;;;18.26;100.00;101149.16;10396647;28;20405;-71
2023/05/09 11:12:25;;;;;;;61.92;34.50;;;;;;;18.62;100.00;101145.84;10396991;28;20041;-71
2023/05/09 11:17:25;;;;;;;57.30;32.47;;;;;;;18.55;100.00;101143.47;10412207;28;20030;-72
2023/05/09 11:22:31;;;;;;;58.65;34.38;;;;;;;18.38;100.00;101136.75;10412244;28;20094;-72
2023/05/09 11:27:38;;;;;;;61.93;34.87;;;;;;;18.57;100.00;101129.22;10394256;28;20097;-72
2023/05/09 11:32:44;;;;;;;61.30;34.13;;;;;;;19.27;100.00;101113.59;10394703;28;20038;-73
2023/05/09 11:37:45;;;;;;;51.10;33.07;;;;;;;19.87;100.00;101082.81;10395726;28;20029;-73
2023/05/09 11:42:52;;;;;;;55.83;33.58;;;;;;;20.53;100.00;101085.25;10395133;28;20072;-73
2023/05/09 11:47:52;;;;;;;;;;;;;;;20.43;100.00;101091.91;10355763;28;20041;-73
2023/05/09 11:52:53;;;;;;;56.97;35.10;;;;;;;20.58;100.00;101079.53;10373515;28;19923;-73
2023/05/09 11:57:53;;;;;;;60.70;35.50;;;;;;;20.85;100.00;101066.56;10371943;28;20038;-74
2023/05/09 12:02:54;;;;;;;57.22;36.30;;;;;;;20.76;100.00;101060.91;10413062;28;20033;-74
2023/05/09 12:07:54;;;;;;;56.35;34.63;;;;;;;20.84;100.00;101057.34;10411086;28;20481;-74
2023/05/09 12:12:55;;;;;;;63.17;37.72;;;;;;;21.07;100.00;101040.53;10394372;28;20409;-72
2023/05/09 12:18:00;;;;;;;59.92;36.42;;;;;;;21.05;100.00;101031.63;10412346;28;20037;-73
2023/05/09 12:23:02;;;;;;;65.03;37.83;;;;;;;20.84;100.00;101014.56;10362415;28;20061;-73
2023/05/09 12:28:02;;;;;;;63.60;38.80;;;;;;;20.79;100.00;101034.28;10412502;28;20076;-72
2023/05/09 12:33:03;;;;;;;65.32;39.00;;;;;;;20.32;100.00;101021.41;10393637;28;20049;-72
2023/05/09 12:38:03;;;;;;;65.05;38.83;;;;;;;20.00;100.00;101024.41;10376913;28;20064;-73
2023/05/09 12:43:04;;;;;;;65.22;38.78;;;;;;;19.68;100.00;101001.09;10340306;28;20034;-73
2023/05/09 12:48:05;;;;;;;66.28;37.72;;;;;;;19.38;100.00;101003.38;10353377;28;20064;-73
2023/05/09 12:53:05;;;;;;;68.57;37.70;;;;;;;19.20;100.00;100993.13;10337998;28;20030;-74
2023/05/09 12:58:06;;;;;;;70.75;39.88;;;;;;;18.95;100.00;100990.53;10383123;28;20034;-73
2023/05/09 13:03:23;;;;;;;76.63;41.63;;;;;;;18.81;100.00;100994.44;10393818;28;20033;-71
2023/05/09 13:08:24;;;;;;;71.57;40.70;;;;;;;18.82;100.00;100996.09;10392644;28;20041;-73
2023/05/09 13:13:27;;;;;;;78.45;42.33;;;;;;;18.85;100.00;101001.03;10410218;28;20825;-74
2023/05/09 13:18:28;;;;;;;72.72;41.40;;;;;;;18.54;100.00;101001.56;10397368;28;20034;-74
2023/05/09 13:23:28;;;;;;;83.15;44.45;;;;;;;18.53;100.00;101003.53;10391539;28;20034;-74
2023/05/09 13:28:29;;;;;;;83.47;43.88;;;;;;;18.38;100.00;100997.41;10412587;28;20088;-74
2023/05/09 13:33:29;;;;;;;77.50;44.30;;;;;;;18.28;100.00;100990.84;10398517;28;20088;-74
2023/05/09 13:38:31;;;;;;;78.78;44.55;;;;;;;18.23;100.00;100981.72;10398580;28;20050;-74
2023/05/09 13:43:31;;;;;;;71.63;41.83;;;;;;;18.34;100.00;100963.72;10418695;28;20037;-76
2023/05/09 13:48:32;;;;;;;78.75;43.38;;;;;;;18.31;100.00;100948.44;10400876;28;20037;-72
2023/05/09 13:53:32;;;;;;;74.55;43.67;;;;;;;18.29;100.00;100928.41;10400518;28;20502;-70
2023/05/09 13:58:33;;;;;;;82.78;45.20;;;;;;;18.07;100.00;100931.03;10417404;28;20029;-70
2023/05/09 14:03:33;;;;;;;77.25;45.83;;;;;;;17.72;100.00;100925.66;10399139;28;20033;-69
2023/05/09 14:08:33;;;;;;;80.05;44.95;;;;;;;17.46;100.00;100929.94;10363907;28;20050;-69
2023/05/09 14:13:34;;;;;;;89.90;47.75;;;;;;;17.39;100.00;100937.84;10376651;28;20046;-69
2023/05/09 14:18:34;;;;;;;87.80;47.53;;;;;;;17.41;100.00;100941.97;10375335;28;20061;-69
2023/05/09 14:23:35;;;;;;;72.65;42.88;;;;;;;17.46;100.00;100950.25;10412468;28;20041;-70
2023/05/09 14:28:37;;;;;;;70.35;40.20;;;;;;;17.53;100.00;100939.56;10416726;28;20423;-69
2023/05/09 14:33:37;;;;;;;55.40;35.70;;;;;;;17.50;100.00;100917.88;10357876;28;20045;-68
2023/05/09 14:38:38;;;;;;;49.25;33.05;;;;;;;17.45;100.00;100926.31;10375880;28;20038;-69
2023/05/09 14:43:38;;;;;;;49.67;32.58;;;;;;;17.43;100.00;100917.44;10375610;28;20026;-67
2023/05/09 14:48:38;;;;;;;49.75;34.75;;;;;;;17.28;100.00;100909.28;10375899;28;20037;-69
2023/05/09 14:53:40;;;;;;;51.20;35.70;;;;;;;17.34;100.00;100913.66;10375053;28;20042;-69
2023/05/09 14:58:41;;;;;;;52.75;34.83;;;;;;;17.24;100.00;100905.44;10367682;28;20101;-70
2023/05/09 15:03:41;;;;;;;53.35;35.45;;;;;;;17.38;100.00;100913.91;10413153;28;20095;-69
2023/05/09 15:08:41;;;;;;;57.53;39.47;;;;;;;17.39;100.00;100904.44;10396697;28;20045;-69
2023/05/09 15:13:42;;;;;;;56.53;38.75;;;;;;;17.38;100.00;100909.16;10396617;28;20042;-69
2023/05/09 15:18:44;;;;;;;60.67;41.13;;;;;;;17.35;100.00;100909.78;10395910;28;20555;-69
2023/05/09 15:23:44;;;;;;;60.53;41.35;;;;;;;17.15;100.00;100899.72;10412226;28;20048;-68
2023/05/09 15:28:45;;;;;;;68.93;43.08;;;;;;;16.99;100.00;100904.69;10396848;28;20474;-69
2023/05/09 15:33:46;;;;;;;72.53;43.13;;;;;;;16.77;100.00;100904.34;10415724;28;20038;-68
2023/05/09 15:38:48;;;;;;;76.40;45.92;;;;;;;16.75;100.00;100908.25;10413053;28;20095;-68
2023/05/09 15:43:48;;;;;;;77.05;45.97;;;;;;;16.84;100.00;100915.97;10412213;28;20037;-68
2023/05/09 15:48:49;;;;;;;80.88;46.53;;;;;;;16.81;100.00;100911.84;10396152;28;20547;-68
2023/05/09 15:53:49;;;;;;;87.18;48.55;;;;;;;16.83;100.00;100908.75;10395645;28;20041;-68
2023/05/09 15:58:50;;;;;;;87.32;47.55;;;;;;;16.81;100.00;100895.16;10413852;28;20052;-68
2023/05/09 16:03:50;;;;;;;91.45;48.88;;;;;;;16.83;100.00;100897.63;10414655;28;20041;-68
2023/05/09 16:08:51;;;;;;;79.75;46.90;;;;;;;16.80;100.00;100892.63;10412178;28;20037;-68
2023/05/09 16:13:51;;;;;;;90.35;47.55;;;;;;;16.73;100.00;100882.69;10412632;28;20040;-68
2023/05/09 16:18:52;;;;;;;92.93;48.25;;;;;;;16.59;100.00;100876.19;10413258;28;20105;-66
2023/05/09 16:23:52;;;;;;;92.45;49.00;;;;;;;16.57;100.00;100872.03;10378270;28;20109;-67
2023/05/09 16:28:53;;;;;;;94.32;47.08;;;;;;;16.51;100.00;100896.28;10394912;28;20045;-67
2023/05/09 16:33:53;;;;;;;98.63;48.20;;;;;;;16.45;100.00;100862.13;10396107;28;20105;-66
2023/05/09 16:38:54;;;;;;;101.95;51.75;;;;;;;16.48;100.00;100869.09;10393432;28;20056;-68
2023/05/09 16:43:54;;;;;;;88.85;47.97;;;;;;;16.40;100.00;100869.72;10410178;28;20390;-67
2023/05/09 16:48:55;;;;;;;77.57;45.15;;;;;;;16.36;100.00;100869.47;10411404;28;20532;-67
2023/05/09 16:53:55;;;;;;;51.90;32.92;;;;;;;16.18;100.00;100862.69;10417166;28;20505;-68
2023/05/09 16:58:55;;;;;;;46.72;30.63;;;;;;;16.12;100.00;100858.31;10419638;28;20208;-67
2023/05/09 17:03:56;;;;;;;41.80;26.80;;;;;;;16.08;100.00;100855.31;10402384;28;20057;-67
2023/05/09 17:08:56;;;;;;;33.78;24.10;;;;;;;16.05;100.00;100855.88;10384989;28;20044;-66
2023/05/09 17:13:57;;;;;;;29.88;23.58;;;;;;;15.99;100.00;100850.66;10419207;28;20046;-67
2023/05/09 17:18:57;;;;;;;31.27;21.30;;;;;;;15.77;100.00;100838.06;10384713;28;20041;-68
2023/05/09 17:23:58;;;;;;;33.10;22.33;;;;;;;15.63;100.00;100848.16;10384069;28;20091;-68
2023/05/09 17:28:59;;;;;;;30.92;21.70;;;;;;;15.62;100.00;100846.50;10418385;28;20097;-67
2023/05/09 17:34:00;;;;;;;35.17;23.08;;;;;;;15.57;100.00;100852.09;10400928;28;20037;-67
2023/05/09 17:39:00;;;;;;;33.30;22.85;;;;;;;15.46;100.00;100841.06;10418171;28;20261;-67
2023/05/09 17:44:01;;;;;;;30.88;21.02;;;;;;;15.47;100.00;100834.38;10417307;28;20038;-69
2023/05/09 17:49:02;;;;;;;33.45;21.42;;;;;;;15.27;100.00;100804.81;10417463;28;20037;-68
2023/05/09 17:54:02;;;;;;;33.92;22.60;;;;;;;15.37;100.00;100817.81;10417524;28;20063;-68
2023/05/09 17:59:03;;;;;;;37.30;23.40;;;;;;;15.34;100.00;100823.94;10417686;28;20029;-67
2023/05/09 18:04:04;;;;;;;34.67;23.35;;;;;;;15.29;100.00;100810.09;10383062;28;20025;-67
2023/05/09 18:09:05;;;;;;;33.13;22.83;;;;;;;15.26;100.00;100816.22;10416549;28;20050;-67
2023/05/09 18:14:06;;;;;;;36.28;24.88;;;;;;;15.23;100.00;100827.88;10404889;28;20041;-67
2023/05/09 18:19:07;;;;;;;45.30;26.77;;;;;;;15.16;100.00;100827.38;10369834;28;20037;-68
2023/05/09 18:24:08;;;;;;;42.40;26.90;;;;;;;15.09;100.00;100817.44;10398001;28;20049;-67
2023/05/09 18:29:08;;;;;;;49.63;28.35;;;;;;;14.98;100.00;100815.81;10416439;28;20060;-67
2023/05/09 18:34:09;;;;;;;46.10;27.42;;;;;;;15.02;100.00;100816.09;10414811;28;20052;-67
2023/05/09 18:39:10;;;;;;;31.27;19.08;;;;;;;14.96;100.00;100808.91;10381443;28;20065;-66
2023/05/09 18:44:11;;;;;;;22.83;15.52;;;;;;;14.85;100.00;100810.91;10402345;28;20073;-65
2023/05/09 18:49:11;;;;;;;16.85;11.57;;;;;;;14.78;100.00;100804.84;10393493;28;20029;-66
2023/05/09 18:54:12;;;;;;;17.95;12.73;;;;;;;14.71;100.00;100800.44;10393684;28;20495;-67
2023/05/09 18:59:15;;;;;;;20.83;13.25;;;;;;;14.65;100.00;100804.31;10395415;28;20101;-67
2023/05/09 19:04:16;;;;;;;15.32;11.40;;;;;;;14.60;100.00;100809.09;10397674;28;20132;-68
2023/05/09 19:09:16;;;;;;;16.25;11.10;;;;;;;14.56;100.00;100814.34;10396017;28;20068;-67
2023/05/09 19:14:17;;;;;;;16.25;11.25;;;;;;;14.54;100.00;100813.78;10395851;28;20064;-68
2023/05/09 19:19:17;;;;;;;18.67;11.77;;;;;;;14.50;100.00;100815.44;10414304;28;20079;-67
2023/05/09 19:24:18;;;;;;;19.60;13.02;;;;;;;14.47;100.00;100816.00;10413676;28;20041;-67
2023/05/09 19:29:20;;;;;;;22.30;11.90;;;;;;;14.43;100.00;100821.28;10414716;28;20065;-66
2023/05/09 19:34:21;;;;;;;19.80;12.15;;;;;;;14.41;100.00;100822.69;10413523;28;20497;-67
2023/05/09 19:39:22;;;;;;;19.90;12.57;;;;;;;14.39;100.00;100820.19;10395679;28;20041;-67
2023/05/09 19:44:23;;;;;;;19.05;12.30;;;;;;;14.39;100.00;100822.16;10378566;28;20045;-68
2023/05/09 19:49:24;;;;;;;20.60;14.02;;;;;;;14.39;100.00;100816.59;10412206;28;20037;-67
2023/05/09 19:54:25;;;;;;;23.95;16.10;;;;;;;14.27;100.00;100801.13;10394651;28;20049;-67
2023/05/09 19:59:28;;;;;;;24.15;14.85;;;;;;;14.22;100.00;100820.53;10399473;28;20447;-67
2023/05/09 20:04:35;;;;;;;22.05;13.70;;;;;;;14.16;100.00;100816.09;10412920;28;20044;-67
2023/05/09 20:09:35;;;;;;;;;;;;;;;14.11;100.00;100822.47;10395508;28;20037;-67
2023/05/09 20:14:36;;;;;;;17.80;12.43;;;;;;;14.15;100.00;100819.16;10412019;28;19917;-69
2023/05/09 20:19:37;;;;;;;16.90;10.80;;;;;;;14.08;100.00;100824.97;10411517;28;20636;-68
2023/05/09 20:24:37;;;;;;;16.25;10.32;;;;;;;14.02;100.00;100817.78;10394486;28;20041;-67
2023/05/09 20:29:37;;;;;;;16.02;11.35;;;;;;;13.99;100.00;100810.03;10376751;28;20049;-69
2023/05/09 20:34:38;;;;;;;14.70;9.93;;;;;;;13.96;100.00;100805.06;10411616;28;20052;-69
2023/05/09 20:39:38;;;;;;;13.02;9.73;;;;;;;13.92;100.00;100797.31;10411721;28;20046;-68
2023/05/09 20:44:40;;;;;;;17.85;11.23;;;;;;;13.92;100.00;100805.59;10411106;28;20033;-69
2023/05/09 20:49:41;;;;;;;16.17;11.15;;;;;;;13.89;100.00;100803.41;10392933;28;20038;-68
2023/05/09 20:54:41;;;;;;;26.10;11.30;;;;;;;13.85;100.00;100799.53;10394035;28;20053;-68
2023/05/09 20:59:43;;;;;;;18.38;11.90;;;;;;;13.90;100.00;100795.94;10392442;28;20137;-69
2023/05/09 21:04:43;;;;;;;19.00;11.32;;;;;;;13.93;100.00;100796.22;10407019;28;20106;-69
2023/05/09 21:09:45;;;;;;;19.63;11.80;;;;;;;13.90;100.00;100796.75;10390871;28;20093;-69
2023/05/09 21:14:45;;;;;;;20.50;12.90;;;;;;;13.89;100.00;100789.56;10408870;28;20064;-69
2023/05/09 21:19:50;;;;;;;27.05;13.85;;;;;;;13.78;100.00;100774.06;10375314;28;20037;-68
2023/05/09 21:24:50;;;;;;;20.35;13.93;;;;;;;13.87;100.00;100791.78;10410866;28;20568;-69
2023/05/09 21:29:51;;;;;;;22.13;13.13;;;;;;;13.79;100.00;100778.50;10381064;28;20088;-68
2023/05/09 21:34:51;;;;;;;21.85;13.57;;;;;;;13.84;100.00;100780.44;10376063;28;20448;-68
2023/05/09 21:39:52;;;;;;;23.02;13.40;;;;;;;13.80;100.00;100776.56;10396849;28;20057;-69
2023/05/09 21:44:52;;;;;;;24.75;13.70;;;;;;;13.80;100.00;100774.63;10400249;28;20045;-69
2023/05/09 21:49:53;;;;;;;24.20;14.18;;;;;;;13.80;100.00;100771.03;10399077;28;20056;-68
2023/05/09 21:54:54;;;;;;;29.70;15.30;;;;;;;13.74;100.00;100770.19;10400504;28;20057;-69
2023/05/09 21:59:55;;;;;;;27.83;16.17;;;;;;;13.76;100.00;100770.75;10418769;28;20068;-69
2023/05/09 22:04:55;;;;;;;26.20;16.13;;;;;;;13.72;100.00;100761.34;10399401;28;20053;-69
2023/05/09 22:09:56;;;;;;;31.23;16.90;;;;;;;13.72;100.00;100764.97;10373618;28;20037;-69
2023/05/09 22:14:56;;;;;;;30.70;16.58;;;;;;;13.68;100.00;100754.72;10398262;28;20041;-68
2023/05/09 22:19:57;;;;;;;27.75;16.58;;;;;;;13.76;100.00;100756.91;10372267;28;20046;-69